KLNK/LNK METAR and TAF weather

Enter ICAO airport designator
Station Type Date Time Source
KLNK METAR 2019/04/25 11:54 UTC NOAA

KLNK 251154Z 35020G25KT 10SM CLR 15/09 A2984 RMK AO2 SLP098 T01500094 10150 20072 53013


Station Type Date Time Source
KLNK Decoded METAR 2019/04/25 11:54 UTC NOAA

LINCOLN MUNICIPAL AIRPORT, NE, United States (KLNK) 40-50N 96-46W 364M
Apr 25, 2019 - 07:54 AM EDT / 2019.04.25 1154 UTC
Wind: from the N (350 degrees) at 23 MPH (20 KT) gusting to 29 MPH (25 KT):0
Visibility: 10 mile(s):0
Sky conditions: clear
Temperature: 59.0 F (15.0 C)
Dew Point: 48.9 F (9.4 C)
Relative Humidity: 69%
Pressure (altimeter): 29.84 in. Hg (1010 hPa)
Pressure tendency: 0.04 inches (1.3 hPa) higher than three hours ago
ob: KLNK 251154Z 35020G25KT 10SM CLR 15/09 A2984 RMK AO2 SLP098 T01500094 10150 20072 53013
cycle: 12

Station Type Date Time Source
KLNK TAF 2019/04/25 12:36 UTC NOAA

TAF KLNK 251133Z 2512/2612 34015G25KT P6SM BKN120
TEMPO 2514/2516 6SM -SHRA OVC080
FM260000 33009KT P6SM SKC

Example: see airport list